Time;durP1;ratioP1;P1;durP2;ratioP2;P2;SDS_P1;SDS_P2;PMS_P1;PMS_P2;Temp;Humidity;BMP_temperature;BMP_pressure;BME280_temperature;BME280_humidity;BME280_pressure;Samples;Min_cycle;Max_cycle;Signal;HPM_P1;HPM_P2
2022/04/01 00:05:25;;;;;;;9.50;3.40;;;;;;;1.34;48.57;98057.84;447682;1268;195019;-63
2022/04/01 00:15:31;;;;;;;6.10;2.30;;;;;;;1.18;49.54;98052.27;445774;1270;143485;-61
2022/04/01 00:25:39;;;;;;;2.00;1.70;;;;;;;0.97;50.25;98049.13;447534;1270;141664;-61
2022/04/01 00:35:44;;;;;;;3.90;2.10;;;;;;;0.84;51.23;98026.00;444083;1269;140828;-62
2022/04/01 00:45:50;;;;;;;3.10;2.00;;;;;;;0.67;52.22;98035.44;440691;1268;141181;-63
2022/04/01 00:55:56;;;;;;;2.90;2.10;;;;;;;0.54;53.01;98030.05;445102;1269;141674;-62
2022/04/01 01:06:02;;;;;;;3.70;2.00;;;;;;;0.41;54.16;98023.08;433339;1270;142073;-61
2022/04/01 01:16:09;;;;;;;3.20;2.30;;;;;;;0.20;55.09;98011.83;441126;1270;141484;-62
2022/04/01 01:26:15;;;;;;;7.00;2.50;;;;;;;0.12;55.34;98003.91;438541;1270;141406;-61
2022/04/01 01:36:23;;;;;;;3.30;2.20;;;;;;;0.07;55.68;98001.42;430848;1270;140657;-61
2022/04/01 01:46:29;;;;;;;2.50;2.20;;;;;;;-0.04;56.34;98003.60;430261;1270;140768;-62
2022/04/01 01:56:35;;;;;;;6.00;2.10;;;;;;;-0.21;57.03;98002.35;438933;1270;141276;-63
2022/04/01 02:06:41;;;;;;;2.60;2.20;;;;;;;-0.43;57.94;97979.08;446827;1269;141043;-62
2022/04/01 02:16:47;;;;;;;3.70;2.30;;;;;;;-0.57;58.58;97970.40;444119;1269;141574;-61
2022/04/01 02:26:53;;;;;;;4.70;2.60;;;;;;;-0.65;59.22;97967.83;443040;1270;143677;-62
2022/04/01 02:37:04;;;;;;;2.30;1.90;;;;;;;-0.82;60.09;97961.53;435602;1270;142090;-61
2022/04/01 02:47:10;;;;;;;2.40;2.20;;;;;;;-1.00;62.30;97956.61;443558;1270;141558;-64
2022/04/01 02:57:16;;;;;;;3.20;2.40;;;;;;;-1.18;62.85;97956.67;447608;1270;142380;-62
2022/04/01 03:07:22;;;;;;;3.10;2.30;;;;;;;-1.29;63.52;97948.75;446884;1269;141926;-62
2022/04/01 03:17:28;;;;;;;4.80;2.70;;;;;;;-1.43;64.46;97947.27;447555;1270;143591;-62
2022/04/01 03:27:33;;;;;;;3.40;2.30;;;;;;;-1.54;65.41;97944.98;446749;1270;142019;-62
2022/04/01 03:37:39;;;;;;;8.80;3.00;;;;;;;-1.67;66.34;97950.11;447443;1270;142362;-62
2022/04/01 03:47:52;;;;;;;6.30;2.70;;;;;;;-1.86;67.16;97953.77;447438;1270;141677;-63
2022/04/01 03:58:06;;;;;;;3.70;2.60;;;;;;;-1.97;68.00;97948.55;446720;1270;143046;-65
2022/04/01 04:08:13;;;;;;;5.40;3.70;;;;;;;-2.07;68.45;97960.42;446347;1270;141857;-63
2022/04/01 04:18:21;;;;;;;4.50;2.60;;;;;;;-2.15;69.05;97960.38;447619;1270;144153;-63
2022/04/01 04:28:30;;;;;;;3.30;2.30;;;;;;;-2.28;69.35;97972.70;445129;1269;141802;-63
2022/04/01 04:38:39;;;;;;;2.80;2.00;;;;;;;-2.41;69.84;97972.52;445859;1269;142513;-63
2022/04/01 04:48:47;;;;;;;6.00;3.00;;;;;;;-2.51;70.33;97982.97;434274;1270;141586;-61
2022/04/01 04:58:56;;;;;;;3.60;2.50;;;;;;;-2.58;70.92;97982.04;430645;1270;142119;-61
2022/04/01 05:09:08;;;;;;;5.00;3.00;;;;;;;-2.63;71.45;97971.58;447490;1270;142387;-62
2022/04/01 05:19:19;;;;;;;3.90;3.00;;;;;;;-2.62;71.63;97985.41;444166;1269;142905;-61
2022/04/01 05:29:31;;;;;;;4.10;3.70;;;;;;;-2.61;71.82;97983.34;447319;1270;142262;-62
2022/04/01 05:39:38;;;;;;;4.90;3.00;;;;;;;-2.52;72.07;97981.66;446508;1269;143410;-62
2022/04/01 05:49:46;;;;;;;4.40;3.10;;;;;;;-2.45;72.18;97987.04;447559;1269;142735;-62
2022/04/01 05:59:51;;;;;;;5.40;3.50;;;;;;;-2.35;72.30;97979.80;439620;1270;141896;-60
2022/04/01 06:10:05;;;;;;;5.40;3.50;;;;;;;-2.32;72.65;97982.28;434545;1268;200195;-61
2022/04/01 06:20:13;;;;;;;5.50;3.60;;;;;;;-2.29;72.78;97990.39;442944;1270;142071;-61
2022/04/01 06:30:21;;;;;;;4.70;3.20;;;;;;;-2.23;72.54;97996.53;437669;1269;141691;-62
2022/04/01 06:40:34;;;;;;;4.10;3.70;;;;;;;-2.18;72.43;98004.72;437360;1269;142564;-61
2022/04/01 06:50:41;;;;;;;4.60;3.30;;;;;;;-2.08;72.54;98001.63;437466;1268;143865;-62
2022/04/01 07:00:47;;;;;;;5.60;4.60;;;;;;;-2.03;72.54;97999.03;430544;1270;144527;-60
2022/04/01 07:10:53;;;;;;;5.20;4.50;;;;;;;-2.02;72.75;98006.02;439916;1270;146593;-61
2022/04/01 07:20:59;;;;;;;4.60;4.00;;;;;;;-1.88;72.89;97989.89;447750;1268;142266;-61
2022/04/01 07:32:29;;;;;;;6.80;4.50;;;;;;;-1.68;72.65;97994.92;446983;1269;143091;-64
2022/04/01 07:41:39;;;;;;;4.60;3.60;;;;;;;-1.40;72.51;97990.75;447599;1270;142331;-65
2022/04/01 07:51:46;;;;;;;6.60;4.40;;;;;;;-1.25;72.20;97998.38;446909;1269;142528;-65
2022/04/01 08:01:52;;;;;;;6.80;4.50;;;;;;;-1.17;71.91;97998.02;444887;1269;141418;-65
2022/04/01 08:11:58;;;;;;;6.20;5.40;;;;;;;-0.90;71.70;97990.73;435711;1268;141629;-65
2022/04/01 08:22:04;;;;;;;6.60;4.90;;;;;;;-0.92;71.54;97995.27;441211;1270;141603;-63
2022/04/01 08:32:10;;;;;;;9.80;4.70;;;;;;;-0.90;71.64;98002.76;442322;1270;143169;-60
2022/04/01 08:42:16;;;;;;;5.20;4.40;;;;;;;-0.76;71.62;98004.07;447492;1270;142920;-59
2022/04/01 08:52:28;;;;;;;6.80;4.70;;;;;;;-0.66;71.55;97997.09;447669;1269;142127;-58
2022/04/01 09:02:34;;;;;;;7.20;4.70;;;;;;;-0.58;71.41;98008.27;447663;1268;142640;-65
2022/04/01 09:12:51;;;;;;;9.40;4.40;;;;;;;-0.56;71.18;98014.36;446824;1270;142795;-62
2022/04/01 09:23:00;;;;;;;5.80;3.70;;;;;;;-0.59;71.09;98019.15;443071;1269;142674;-68
2022/04/01 09:33:06;;;;;;;7.30;4.20;;;;;;;-0.64;71.42;98015.73;444001;1269;142457;-64
2022/04/01 09:43:12;;;;;;;10.00;5.00;;;;;;;-0.72;71.39;98023.45;446748;1269;142099;-68
2022/04/01 09:53:20;;;;;;;4.80;3.90;;;;;;;-0.76;71.58;98017.29;437443;1270;143293;-75
2022/04/01 10:03:26;;;;;;;3.80;3.40;;;;;;;-0.91;71.85;98012.93;436618;1270;141040;-70
2022/04/01 10:13:33;;;;;;;10.20;4.50;;;;;;;-0.85;71.91;98016.96;434218;1269;141309;-69
2022/04/01 10:23:45;;;;;;;8.10;4.70;;;;;;;-0.69;72.20;98028.66;443421;1269;142543;-63
2022/04/01 10:33:52;;;;;;;11.90;5.00;;;;;;;-0.48;72.22;98032.23;431998;1270;143337;-69
2022/04/01 10:43:58;;;;;;;6.60;4.10;;;;;;;-0.31;72.38;98029.41;438323;1270;143120;-73
2022/04/01 10:54:25;;;;;;;8.80;3.90;;;;;;;-0.11;72.32;98030.06;447640;1269;142470;-62
2022/04/01 11:04:33;;;;;;;5.60;4.20;;;;;;;0.21;71.91;98034.64;447642;1269;151394;-66
2022/04/01 11:15:12;;;;;;;9.20;4.80;;;;;;;0.50;71.78;98027.10;432424;1270;141933;-62
2022/04/01 11:25:55;;;;;;;6.00;3.60;;;;;;;0.83;71.21;98004.84;446948;1269;142309;-65
2022/04/01 11:36:01;;;;;;;5.30;3.50;;;;;;;0.92;70.94;98011.15;447446;1269;141523;-62
2022/04/01 11:46:07;;;;;;;10.30;4.30;;;;;;;1.09;70.54;98017.20;435239;1269;141594;-61
2022/04/01 11:56:15;;;;;;;5.40;4.00;;;;;;;1.12;70.53;98014.42;447684;1269;143876;-64
2022/04/01 12:16:48;;;;;;;9.50;4.50;;;;;;;1.25;70.24;98021.91;447729;1269;141036;-70
2022/04/01 12:26:54;;;;;;;10.20;4.60;;;;;;;1.22;70.01;98024.11;447761;1269;141855;-66
2022/04/01 12:37:02;;;;;;;10.80;3.80;;;;;;;1.11;69.91;98024.15;446738;1269;141736;-60
2022/04/01 12:47:10;;;;;;;6.30;3.00;;;;;;;1.08;69.82;98028.24;439548;1270;142599;-62
2022/04/01 12:57:17;;;;;;;6.70;3.80;;;;;;;0.89;70.31;98027.29;447758;1269;141786;-61
2022/04/01 13:07:31;;;;;;;12.10;3.70;;;;;;;0.88;70.35;98024.93;446909;1269;141840;-64
2022/04/01 13:17:46;;;;;;;7.70;3.30;;;;;;;0.74;70.42;98023.02;447663;1270;143241;-68
2022/04/01 13:27:52;;;;;;;5.60;3.70;;;;;;;0.70;70.83;98016.33;447039;1268;142194;-67
2022/04/01 13:37:58;;;;;;;7.90;3.20;;;;;;;0.51;71.02;98027.24;447607;1270;141618;-61
2022/04/01 13:48:04;;;;;;;7.00;3.90;;;;;;;0.49;71.69;98040.60;439964;1269;142625;-61
2022/04/01 13:58:10;;;;;;;5.90;4.50;;;;;;;0.56;71.57;98049.91;446729;1270;142459;-59
2022/04/01 14:08:17;;;;;;;6.60;4.90;;;;;;;0.47;71.60;98046.73;447747;1269;141787;-61
2022/04/01 14:18:23;;;;;;;7.80;5.90;;;;;;;0.32;72.06;98046.17;447648;1270;142394;-58
2022/04/01 14:28:29;;;;;;;8.00;5.50;;;;;;;0.39;72.31;98030.90;447674;1269;142679;-59
2022/04/01 14:38:35;;;;;;;11.00;5.50;;;;;;;0.44;72.23;98039.77;447635;1269;141987;-63
2022/04/01 14:48:48;;;;;;;9.00;6.10;;;;;;;0.38;72.50;98042.50;446941;1269;142524;-65
2022/04/01 14:58:54;;;;;;;7.50;5.50;;;;;;;0.20;72.56;98043.32;447875;1269;141792;-60
2022/04/01 15:09:00;;;;;;;7.20;6.50;;;;;;;0.19;73.01;98053.02;447582;1270;141623;-62
2022/04/01 15:19:06;;;;;;;12.20;6.90;;;;;;;0.17;72.80;98062.40;446905;1270;142301;-60
2022/04/01 15:29:14;;;;;;;7.00;6.20;;;;;;;0.05;72.91;98062.55;447417;1270;142500;-65
2022/04/01 15:39:23;;;;;;;10.40;6.50;;;;;;;-0.06;73.11;98063.78;447745;1269;142738;-60
2022/04/01 15:49:30;;;;;;;12.30;6.50;;;;;;;-0.17;73.64;98068.04;434126;1270;144988;-59
2022/04/01 15:59:42;;;;;;;9.20;6.10;;;;;;;-0.25;73.26;98086.98;430757;1270;142563;-64
2022/04/01 16:09:52;;;;;;;9.00;7.30;;;;;;;-0.41;73.25;98097.44;446552;1270;160802;-60
2022/04/01 16:20:00;;;;;;;7.80;6.30;;;;;;;-0.54;74.05;98098.66;447701;1269;142466;-59
2022/04/01 16:30:08;;;;;;;9.80;5.80;;;;;;;-0.66;73.96;98102.09;447448;1270;142490;-59
2022/04/01 16:40:15;;;;;;;6.30;5.60;;;;;;;-0.74;74.33;98117.22;446914;1270;142990;-60
2022/04/01 16:50:21;;;;;;;11.10;5.20;;;;;;;-0.84;74.67;98117.11;447844;1269;144684;-60
2022/04/01 17:00:27;;;;;;;11.40;6.80;;;;;;;-1.01;75.39;98128.45;447093;1270;165758;-58
2022/04/01 17:20:53;;;;;;;12.30;4.90;;;;;;;-1.16;75.77;98145.33;440888;1270;143277;-59
2022/04/01 17:31:00;;;;;;;12.20;6.40;;;;;;;-1.30;76.19;98152.91;445834;1269;142559;-59
2022/04/01 17:41:09;;;;;;;7.80;5.80;;;;;;;-1.36;76.25;98160.89;444199;1270;143059;-61
2022/04/01 17:51:15;;;;;;;7.50;5.50;;;;;;;-1.38;76.39;98176.77;444100;1270;143798;-59
2022/04/01 18:01:24;;;;;;;10.30;5.60;;;;;;;-1.41;76.67;98180.80;444602;1269;142451;-63
2022/04/01 18:11:32;;;;;;;7.30;5.50;;;;;;;-1.43;76.83;98185.34;447475;1270;142883;-59
2022/04/01 18:21:37;;;;;;;7.30;5.30;;;;;;;-1.40;76.85;98184.56;446573;1269;142661;-59
2022/04/01 18:31:45;;;;;;;9.70;4.80;;;;;;;-1.39;76.95;98190.18;445674;1269;142428;-59
2022/04/01 18:41:55;;;;;;;8.70;5.70;;;;;;;-1.44;77.29;98186.22;445152;1270;142565;-60
2022/04/01 18:52:02;;;;;;;10.00;5.20;;;;;;;-1.49;77.55;98190.86;446872;1269;146528;-61
2022/04/01 19:02:16;;;;;;;6.80;4.10;;;;;;;-1.49;77.48;98198.64;447404;1270;141893;-62
2022/04/01 19:12:25;;;;;;;7.10;4.50;;;;;;;-1.45;77.56;98200.37;447573;1270;141928;-61
2022/04/01 19:22:36;;;;;;;7.50;4.80;;;;;;;-1.41;77.35;98202.08;447460;1269;151644;-62
2022/04/01 19:32:45;;;;;;;8.20;4.80;;;;;;;-1.40;77.55;98210.30;445525;1269;141668;-62
2022/04/01 19:42:52;;;;;;;12.10;6.70;;;;;;;-1.42;77.60;98218.08;446643;1269;142984;-61
2022/04/01 19:52:58;;;;;;;7.10;5.10;;;;;;;-1.45;77.73;98219.05;447399;1270;142506;-62
2022/04/01 20:03:05;;;;;;;7.00;4.70;;;;;;;-1.48;77.78;98226.91;446635;1269;142058;-58
2022/04/01 20:13:11;;;;;;;6.90;4.70;;;;;;;-1.53;77.89;98221.41;446596;1270;142100;-58
2022/04/01 20:23:20;;;;;;;7.40;4.70;;;;;;;-1.59;78.11;98218.71;442868;1270;142689;-60
2022/04/01 20:33:26;;;;;;;10.50;6.20;;;;;;;-1.64;78.09;98216.84;446561;1270;143541;-59
2022/04/01 20:43:32;;;;;;;7.20;3.80;;;;;;;-1.67;78.13;98210.44;447348;1270;142873;-60
2022/04/01 20:53:38;;;;;;;5.30;4.10;;;;;;;-1.68;78.21;98201.52;447238;1270;142467;-60
2022/04/01 21:03:43;;;;;;;7.20;4.60;;;;;;;-1.70;78.29;98203.65;446809;1269;141509;-59
2022/04/01 21:13:51;;;;;;;4.10;3.70;;;;;;;-1.72;78.27;98199.27;447452;1269;142113;-60
2022/04/01 21:23:57;;;;;;;7.70;4.80;;;;;;;-1.72;78.26;98199.98;447391;1269;143614;-60
2022/04/01 21:34:03;;;;;;;8.00;4.90;;;;;;;-1.73;78.22;98201.54;446699;1268;142561;-64
2022/04/01 21:44:10;;;;;;;7.40;5.30;;;;;;;-1.73;78.24;98203.23;447415;1269;143941;-60
2022/04/01 21:54:16;;;;;;;10.40;6.30;;;;;;;-1.74;78.30;98202.94;447706;1268;142505;-60
2022/04/01 22:04:23;;;;;;;7.20;4.90;;;;;;;-1.75;78.38;98205.36;446836;1270;142669;-58
2022/04/01 22:14:29;;;;;;;5.30;4.80;;;;;;;-1.76;78.38;98198.06;447786;1269;142635;-58
2022/04/01 22:24:35;;;;;;;7.30;4.00;;;;;;;-1.76;78.48;98198.73;446805;1270;142744;-60
2022/04/01 22:34:41;;;;;;;9.90;4.60;;;;;;;-1.74;78.68;98190.08;447459;1270;141623;-60
2022/04/01 22:44:46;;;;;;;5.40;4.10;;;;;;;-1.73;78.71;98190.90;437055;1270;141667;-60
2022/04/01 22:54:53;;;;;;;4.50;4.10;;;;;;;-1.75;78.72;98185.49;436940;1269;143274;-58
2022/04/01 23:04:59;;;;;;;9.40;4.60;;;;;;;-1.77;78.81;98181.80;432024;1270;142446;-60
2022/04/01 23:15:06;;;;;;;7.80;3.70;;;;;;;-1.85;78.77;98177.09;431519;1270;142201;-59
2022/04/01 23:25:12;;;;;;;8.20;3.80;;;;;;;-1.92;78.90;98180.93;430773;1270;142343;-59
2022/04/01 23:35:20;;;;;;;4.20;3.50;;;;;;;-1.94;78.95;98179.48;431456;1270;145504;-58
2022/04/01 23:45:26;;;;;;;4.00;3.60;;;;;;;-1.98;79.17;98176.67;447229;1269;142762;-59
2022/04/01 23:55:31;;;;;;;4.30;3.40;;;;;;;-1.98;79.26;98176.67;447449;1269;196750;-59
